Time;durP1;ratioP1;P1;durP2;ratioP2;P2;SDS_P1;SDS_P2;PMS_P1;PMS_P2;Temp;Humidity;BMP_temperature;BMP_pressure;BME280_temperature;BME280_humidity;BME280_pressure;Samples;Min_cycle;Max_cycle;Signal;HPM_P1;HPM_P2
2022/05/10 00:02:02;;;;;;;7.35;6.70;;;12.10;99.90;;;;;;5070769;28;20036;-75
2022/05/10 00:04:28;;;;;;;7.07;6.10;;;12.10;99.90;;;;;;5070459;28;20045;-72
2022/05/10 00:06:55;;;;;;;9.52;5.72;;;12.00;99.90;;;;;;5064923;28;20037;-75
2022/05/10 00:09:27;;;;;;;6.78;6.13;;;12.00;99.90;;;;;;5069120;28;20560;-76
2022/05/10 00:11:54;;;;;;;7.07;6.38;;;11.90;99.90;;;;;;5065792;28;20037;-72
2022/05/10 00:14:21;;;;;;;6.63;6.03;;;11.80;99.90;;;;;;5053176;28;20033;-72
2022/05/10 00:16:51;;;;;;;8.02;6.68;;;11.60;99.90;;;;;;5068891;28;20033;-72
2022/05/10 00:19:18;;;;;;;6.43;5.82;;;11.60;99.90;;;;;;5071655;28;20043;-72
2022/05/10 00:21:47;;;;;;;6.50;5.88;;;11.60;99.90;;;;;;5072957;28;20059;-75
2022/05/10 00:24:14;;;;;;;8.27;6.25;;;11.60;99.90;;;;;;5075125;28;20047;-72
2022/05/10 00:26:40;;;;;;;7.68;6.68;;;11.40;99.90;;;;;;5069508;28;20496;-72
2022/05/10 00:29:07;;;;;;;13.23;6.53;;;11.40;99.90;;;;;;5073002;28;20390;-72
2022/05/10 00:31:33;;;;;;;8.00;7.20;;;11.30;99.90;;;;;;5073614;28;20025;-72
2022/05/10 00:34:01;;;;;;;6.57;6.07;;;11.30;99.90;;;;;;5051073;28;20033;-72
2022/05/10 00:36:27;;;;;;;8.75;7.72;;;11.30;99.90;;;;;;5074968;28;20059;-73
2022/05/10 00:38:54;;;;;;;7.85;6.80;;;11.40;99.90;;;;;;5073994;28;20045;-72
2022/05/10 00:41:23;;;;;;;7.30;6.65;;;11.60;99.90;;;;;;5073827;28;20055;-72
2022/05/10 00:44:12;;;;;;;7.40;6.70;;;11.60;99.90;;;;;;5072531;28;20048;-72
2022/05/10 00:46:51;;;;;;;6.97;6.43;;;11.60;99.90;;;;;;5055976;28;20060;-72
2022/05/10 00:49:29;;;;;;;7.78;6.47;;;11.40;99.90;;;;;;5068731;28;20025;-72
2022/05/10 00:52:05;;;;;;;7.57;6.88;;;11.40;99.90;;;;;;5075342;28;20035;-74
2022/05/10 00:54:44;;;;;;;8.50;7.70;;;11.30;99.90;;;;;;5064161;28;20037;-74
2022/05/10 00:57:46;;;;;;;8.05;7.05;;;11.30;99.90;;;;;;5076592;28;20044;-74
2022/05/10 01:00:27;;;;;;;8.82;7.95;;;11.20;99.90;;;;;;5068591;28;20048;-72
2022/05/10 01:03:05;;;;;;;8.55;7.68;;;11.20;99.90;;;;;;5075100;28;20043;-73
2022/05/10 01:05:42;;;;;;;9.15;8.25;;;11.10;99.90;;;;;;5075786;28;20028;-72
2022/05/10 01:08:22;;;;;;;7.68;7.03;;;11.00;99.90;;;;;;5076368;28;20037;-72
2022/05/10 01:11:10;;;;;;;11.07;8.23;;;11.00;99.90;;;;;;5075727;28;20040;-74
2022/05/10 01:13:48;;;;;;;7.35;6.65;;;10.80;99.90;;;;;;5073342;28;20044;-73
2022/05/10 01:16:18;;;;;;;9.13;7.63;;;10.80;99.90;;;;;;5077346;28;20037;-72
2022/05/10 01:18:45;;;;;;;8.10;7.30;;;10.80;99.90;;;;;;5086822;28;20032;-73
2022/05/10 01:21:45;;;;;;;7.82;7.22;;;10.80;99.90;;;;;;5082942;28;20051;-73
2022/05/10 01:24:30;;;;;;;8.73;7.90;;;10.80;99.90;;;;;;5069249;28;20047;-72
2022/05/10 01:27:18;;;;;;;8.25;7.55;;;10.90;99.90;;;;;;5075688;28;20059;-73
2022/05/10 01:30:03;;;;;;;8.93;8.07;;;10.90;99.90;;;;;;5071574;28;20402;-73
2022/05/10 01:36:04;;;;;;;7.90;7.10;;;11.00;99.90;;;;;;5039921;28;20051;-73
2022/05/10 01:38:43;;;;;;;7.78;6.82;;;11.00;99.90;;;;;;5074970;28;20056;-73
2022/05/10 01:41:32;;;;;;;7.57;6.93;;;11.00;99.90;;;;;;5073241;28;20029;-73
2022/05/10 01:44:25;;;;;;;8.75;7.53;;;10.80;99.90;;;;;;5073859;28;20045;-73
2022/05/10 01:46:57;;;;;;;14.32;7.95;;;10.90;99.90;;;;;;5058520;28;20048;-73
2022/05/10 01:49:38;;;;;;;7.68;6.90;;;10.90;99.90;;;;;;5056903;28;20025;-78
2022/05/10 01:52:16;;;;;;;7.17;6.53;;;10.90;99.90;;;;;;5052569;28;20474;-74
2022/05/10 01:55:01;;;;;;;8.18;7.38;;;10.80;99.90;;;;;;5073116;28;20025;-73
2022/05/10 01:57:30;;;;;;;7.35;6.68;;;10.60;99.90;;;;;;5074543;28;20036;-78
2022/05/10 02:00:04;;;;;;;8.93;7.88;;;10.60;99.90;;;;;;5068971;28;20036;-73
2022/05/10 02:02:52;;;;;;;7.93;7.22;;;10.50;99.90;;;;;;5072683;28;20047;-73
2022/05/10 02:05:43;;;;;;;7.68;6.97;;;10.50;99.90;;;;;;5074409;28;20047;-73
2022/05/10 02:08:42;;;;;;;7.70;7.00;;;10.50;99.90;;;;;;5064055;28;20052;-73
2022/05/10 02:11:12;;;;;;;9.05;8.15;;;10.50;99.90;;;;;;5064908;28;20377;-73
2022/05/10 02:13:46;;;;;;;11.77;8.30;;;10.50;99.90;;;;;;5055396;28;20037;-73
2022/05/10 02:16:28;;;;;;;9.45;8.55;;;10.50;99.90;;;;;;5070937;28;20040;-73
2022/05/10 02:19:01;;;;;;;9.02;8.13;;;10.40;99.90;;;;;;5074595;28;20029;-73
2022/05/10 02:21:41;;;;;;;9.27;7.93;;;10.40;99.90;;;;;;5070652;28;20377;-78
2022/05/10 02:24:14;;;;;;;14.68;8.57;;;10.40;99.90;;;;;;5069213;28;20044;-73
2022/05/10 02:26:57;;;;;;;9.98;8.98;;;10.40;99.90;;;;;;5072804;28;20040;-73
2022/05/10 02:29:59;;;;;;;9.93;9.00;;;10.40;99.90;;;;;;5073711;28;20032;-73
2022/05/10 02:33:07;;;;;;;11.63;10.43;;;10.30;99.90;;;;;;5069559;28;20025;-77
2022/05/10 02:35:48;;;;;;;9.32;8.45;;;10.30;99.90;;;;;;5069113;28;20465;-74
2022/05/10 02:38:27;;;;;;;10.15;9.10;;;10.30;99.90;;;;;;5074649;28;20099;-73
2022/05/10 02:40:56;;;;;;;9.82;8.80;;;10.40;99.90;;;;;;5073626;28;20043;-74
2022/05/10 02:43:29;;;;;;;8.73;7.93;;;10.40;99.90;;;;;;5073381;28;20028;-72
2022/05/10 02:45:56;;;;;;;9.15;8.25;;;10.20;99.90;;;;;;5073569;28;20029;-74
2022/05/10 02:48:27;;;;;;;8.30;7.55;;;10.20;99.90;;;;;;5071346;28;20049;-74
2022/05/10 02:50:54;;;;;;;8.25;7.63;;;10.30;99.90;;;;;;5071191;28;20044;-74
2022/05/10 02:53:21;;;;;;;10.60;9.63;;;10.30;99.90;;;;;;5055064;28;20052;-74
2022/05/10 02:55:57;;;;;;;8.63;7.78;;;10.40;99.90;;;;;;5073563;28;20024;-73
2022/05/10 02:58:26;;;;;;;8.75;7.85;;;10.20;99.90;;;;;;5074418;28;20377;-73
2022/05/10 03:01:15;;;;;;;10.00;8.50;;;10.10;99.90;;;;;;5073650;28;20040;-73
2022/05/10 03:03:41;;;;;;;8.48;7.78;;;10.10;99.90;;;;;;5057189;28;20040;-73
2022/05/10 03:06:09;;;;;;;7.57;6.97;;;10.00;99.90;;;;;;5067452;28;20044;-73
2022/05/10 03:08:35;;;;;;;8.00;7.28;;;10.00;99.90;;;;;;5069879;28;20372;-74
2022/05/10 03:11:01;;;;;;;8.82;7.97;;;10.00;99.90;;;;;;5081157;28;20032;-73
2022/05/10 03:13:27;;;;;;;9.27;7.35;;;9.90;99.90;;;;;;5075431;28;20028;-79
2022/05/10 03:15:53;;;;;;;11.05;8.57;;;9.80;99.90;;;;;;5054379;28;20039;-74
2022/05/10 03:18:19;;;;;;;11.43;10.05;;;9.80;99.90;;;;;;5073280;28;20032;-73
2022/05/10 03:20:46;;;;;;;11.65;10.30;;;9.90;99.90;;;;;;5070406;28;20029;-74
2022/05/10 03:23:12;;;;;;;9.88;9.02;;;9.90;99.90;;;;;;5073618;28;20036;-73
2022/05/10 03:25:38;;;;;;;10.05;9.10;;;9.80;99.90;;;;;;5055774;28;20037;-74
2022/05/10 03:28:06;;;;;;;9.40;8.50;;;9.80;99.90;;;;;;5055974;28;20036;-72
2022/05/10 03:30:32;;;;;;;10.65;9.65;;;9.70;99.90;;;;;;5072843;28;20043;-74
2022/05/10 03:32:58;;;;;;;11.27;9.77;;;9.60;99.90;;;;;;5072877;28;20381;-73
2022/05/10 03:35:25;;;;;;;11.48;10.32;;;9.50;99.90;;;;;;5049245;28;20040;-72
2022/05/10 03:37:51;;;;;;;11.27;10.27;;;9.50;99.90;;;;;;5071498;28;20049;-73
2022/05/10 03:40:18;;;;;;;9.88;9.10;;;9.60;99.90;;;;;;5073414;28;20453;-73
2022/05/10 03:42:50;;;;;;;12.98;11.65;;;9.60;99.90;;;;;;5071285;28;20111;-73
2022/05/10 03:45:18;;;;;;;10.30;9.05;;;9.60;99.90;;;;;;5072523;28;20036;-73
2022/05/10 03:47:46;;;;;;;11.90;9.30;;;9.50;99.90;;;;;;5072417;28;20043;-73
2022/05/10 03:50:13;;;;;;;10.48;9.48;;;9.40;99.90;;;;;;5072108;28;20044;-74
2022/05/10 03:52:41;;;;;;;10.10;9.20;;;9.40;99.90;;;;;;5070553;28;20045;-72
2022/05/10 03:55:11;;;;;;;12.75;11.45;;;9.40;99.90;;;;;;5071969;28;20028;-72
2022/05/10 03:57:38;;;;;;;12.68;11.57;;;9.60;99.90;;;;;;5069294;28;20048;-72
2022/05/10 04:00:08;;;;;;;9.82;9.02;;;9.60;99.90;;;;;;5069865;28;20047;-72
2022/05/10 04:02:40;;;;;;;12.18;10.65;;;9.70;99.90;;;;;;5077408;28;20044;-73
2022/05/10 04:05:07;;;;;;;9.68;8.80;;;9.90;99.90;;;;;;5069733;28;20044;-73
2022/05/10 04:07:33;;;;;;;9.68;8.77;;;10.00;99.90;;;;;;5049100;28;20375;-73
2022/05/10 04:10:00;;;;;;;9.68;8.70;;;10.10;99.90;;;;;;5070022;28;20036;-74
2022/05/10 04:12:26;;;;;;;9.75;8.80;;;10.20;99.90;;;;;;5068940;28;20465;-78
2022/05/10 04:14:52;;;;;;;8.00;7.25;;;10.20;99.90;;;;;;5067203;28;20044;-74
2022/05/10 04:17:18;;;;;;;9.00;8.15;;;10.20;99.90;;;;;;5072591;28;20043;-72
2022/05/10 04:19:45;;;;;;;9.00;8.20;;;10.20;99.90;;;;;;5067023;28;20036;-73
2022/05/10 04:22:11;;;;;;;8.88;7.10;;;10.30;99.90;;;;;;5070425;28;20095;-73
2022/05/10 04:24:37;;;;;;;8.98;8.15;;;10.30;99.90;;;;;;5069819;28;20029;-73
2022/05/10 04:27:04;;;;;;;10.95;7.95;;;10.40;99.90;;;;;;5068657;28;20408;-73
2022/05/10 04:29:30;;;;;;;9.02;6.88;;;10.40;99.90;;;;;;5070789;28;20036;-73
2022/05/10 04:31:56;;;;;;;9.52;8.63;;;10.40;99.90;;;;;;5069954;28;20402;-73
2022/05/10 04:34:22;;;;;;;9.05;8.25;;;10.50;99.90;;;;;;5071077;28;20039;-73
2022/05/10 04:36:48;;;;;;;7.80;6.88;;;10.60;99.90;;;;;;5051703;28;20039;-76
2022/05/10 04:39:14;;;;;;;10.77;7.95;;;10.70;99.90;;;;;;5070810;28;20064;-73
2022/05/10 04:41:46;;;;;;;8.73;8.00;;;10.80;99.90;;;;;;5047391;28;20056;-73
2022/05/10 04:44:12;;;;;;;8.43;7.63;;;11.00;99.90;;;;;;5070122;28;20036;-73
2022/05/10 04:46:41;;;;;;;9.35;7.97;;;11.30;99.90;;;;;;5050593;28;20037;-73
2022/05/10 04:49:10;;;;;;;8.15;7.45;;;11.50;99.90;;;;;;5064518;28;20393;-74
2022/05/10 04:51:37;;;;;;;7.75;7.05;;;11.70;99.90;;;;;;5059122;28;20037;-77
2022/05/10 04:54:04;;;;;;;9.05;7.72;;;11.80;99.90;;;;;;5070632;28;20036;-73
2022/05/10 04:56:30;;;;;;;6.65;5.72;;;12.20;99.90;;;;;;5070208;28;20037;-74
2022/05/10 04:58:56;;;;;;;7.78;6.68;;;12.70;99.90;;;;;;5070827;28;20036;-75
2022/05/10 05:01:26;;;;;;;7.40;6.53;;;13.10;99.90;;;;;;5069179;28;20460;-73
2022/05/10 05:03:59;;;;;;;6.07;5.53;;;13.80;99.90;;;;;;5071612;28;20040;-72
2022/05/10 05:06:27;;;;;;;7.75;7.05;;;14.60;99.90;;;;;;5066606;28;20028;-76
2022/05/10 05:08:53;;;;;;;10.88;6.97;;;15.00;99.90;;;;;;5075471;28;20051;-71
2022/05/10 05:11:19;;;;;;;7.38;6.68;;;15.50;99.90;;;;;;5073093;28;20512;-74
2022/05/10 05:13:46;;;;;;;6.32;4.78;;;16.10;99.90;;;;;;5070077;28;20478;-73
2022/05/10 05:16:12;;;;;;;6.28;5.10;;;16.20;99.20;;;;;;5071660;28;20025;-73
2022/05/10 05:18:38;;;;;;;16.08;5.63;;;16.00;99.90;;;;;;5073236;28;20049;-73
2022/05/10 05:21:04;;;;;;;7.32;5.85;;;16.10;99.90;;;;;;5072691;28;20485;-73
2022/05/10 05:23:30;;;;;;;8.18;6.97;;;16.60;99.90;;;;;;5072020;28;20032;-73
2022/05/10 05:25:57;;;;;;;7.00;6.30;;;16.90;98.70;;;;;;5072088;28;20032;-73
2022/05/10 05:28:23;;;;;;;10.25;6.68;;;16.90;98.70;;;;;;5073153;28;20044;-75
2022/05/10 05:30:50;;;;;;;7.47;6.53;;;17.10;98.70;;;;;;5066167;28;20035;-73
2022/05/10 05:33:17;;;;;;;7.43;6.68;;;17.40;97.20;;;;;;5071675;28;20036;-73
2022/05/10 05:35:43;;;;;;;7.35;6.53;;;17.70;96.50;;;;;;5072113;28;20025;-73
2022/05/10 05:38:09;;;;;;;8.45;6.07;;;18.10;95.70;;;;;;5073943;28;20048;-73
2022/05/10 05:40:37;;;;;;;7.68;6.53;;;18.30;94.40;;;;;;5069996;28;20040;-73
2022/05/10 05:43:06;;;;;;;10.43;6.03;;;17.70;95.20;;;;;;5073266;28;20041;-74
2022/05/10 05:45:33;;;;;;;6.63;6.07;;;17.70;96.20;;;;;;5073305;28;20421;-73
2022/05/10 05:48:08;;;;;;;7.43;6.43;;;17.80;96.60;;;;;;5073229;28;20044;-74
2022/05/10 05:50:34;;;;;;;8.52;5.78;;;18.30;95.80;;;;;;5066377;28;20040;-73
2022/05/10 05:53:00;;;;;;;8.02;6.03;;;18.80;94.70;;;;;;5073821;28;20469;-73
2022/05/10 05:55:28;;;;;;;6.20;5.68;;;19.30;92.80;;;;;;5072527;28;20048;-79
2022/05/10 05:57:54;;;;;;;7.65;6.88;;;18.90;92.30;;;;;;5069794;28;20033;-73
2022/05/10 06:00:23;;;;;;;7.47;5.65;;;18.70;92.80;;;;;;5068144;28;20485;-76
2022/05/10 06:02:50;;;;;;;7.88;7.10;;;18.90;91.80;;;;;;5053354;28;20421;-73
2022/05/10 06:05:17;;;;;;;8.48;7.40;;;18.90;91.80;;;;;;5055898;28;20385;-72
2022/05/10 06:07:43;;;;;;;8.70;6.63;;;18.90;92.40;;;;;;5072604;28;20032;-73
2022/05/10 06:10:11;;;;;;;8.35;6.95;;;19.30;91.20;;;;;;5073731;28;20037;-73
2022/05/10 06:12:39;;;;;;;8.43;6.60;;;18.20;92.30;;;;;;5072377;28;20025;-73
2022/05/10 06:15:10;;;;;;;7.32;6.10;;;18.60;93.00;;;;;;5073569;28;20047;-73
2022/05/10 06:17:38;;;;;;;7.32;6.28;;;18.50;93.30;;;;;;5072409;28;20039;-73
2022/05/10 06:20:07;;;;;;;6.80;6.00;;;18.50;93.90;;;;;;5074175;28;20036;-73
2022/05/10 06:22:34;;;;;;;8.25;6.30;;;19.70;92.10;;;;;;5070688;28;20029;-75
2022/05/10 06:25:03;;;;;;;7.63;7.00;;;20.60;87.50;;;;;;5073415;28;20041;-75
2022/05/10 06:27:30;;;;;;;14.85;8.07;;;20.20;86.70;;;;;;5073825;28;20048;-76
2022/05/10 06:29:58;;;;;;;7.88;7.18;;;19.30;89.20;;;;;;5057305;28;20063;-74
2022/05/10 06:32:26;;;;;;;13.43;8.18;;;18.20;92.10;;;;;;5073992;28;20054;-74
2022/05/10 06:34:53;;;;;;;8.13;7.32;;;18.10;92.80;;;;;;5074575;28;20044;-73
2022/05/10 06:40:08;;;;;;;6.97;6.30;;;18.90;91.30;;;;;;5072433;28;20032;-74
2022/05/10 06:42:34;;;;;;;8.30;7.15;;;21.00;85.20;;;;;;5072233;28;20040;-74
2022/05/10 06:45:01;;;;;;;8.27;6.53;;;22.40;77.10;;;;;;5070560;28;20032;-74
2022/05/10 06:47:27;;;;;;;6.07;5.47;;;22.80;72.00;;;;;;5051980;28;20036;-78
2022/05/10 06:49:53;;;;;;;8.73;7.30;;;23.30;70.30;;;;;;5071321;28;20492;-74
2022/05/10 06:52:23;;;;;;;9.07;6.97;;;22.80;69.70;;;;;;5072198;28;20028;-75
2022/05/10 06:54:49;;;;;;;9.38;8.45;;;21.40;72.60;;;;;;5070058;28;20040;-74
2022/05/10 06:57:15;;;;;;;10.80;8.32;;;20.30;77.40;;;;;;5068831;28;20370;-75
2022/05/10 06:59:43;;;;;;;9.23;8.25;;;19.40;80.80;;;;;;5072259;28;20028;-74
2022/05/10 07:02:09;;;;;;;7.97;7.18;;;19.80;84.70;;;;;;5072190;28;20028;-75
2022/05/10 07:04:35;;;;;;;13.70;8.65;;;20.50;80.20;;;;;;5071656;28;20032;-74
2022/05/10 07:07:02;;;;;;;14.30;8.60;;;21.70;78.50;;;;;;5072926;28;20028;-74
2022/05/10 07:09:28;;;;;;;12.80;8.10;;;22.50;73.10;;;;;;5071303;28;20052;-75
2022/05/10 07:11:55;;;;;;;12.05;8.25;;;23.30;70.30;;;;;;5069284;28;20028;-74
2022/05/10 07:14:21;;;;;;;8.55;7.65;;;22.60;72.20;;;;;;5053651;28;20470;-74
2022/05/10 07:16:47;;;;;;;9.10;7.68;;;21.80;73.50;;;;;;5072067;28;20612;-74
2022/05/10 07:19:13;;;;;;;11.50;8.57;;;21.40;72.80;;;;;;5036832;28;20040;-74
2022/05/10 07:21:39;;;;;;;11.35;8.02;;;21.60;72.30;;;;;;5065676;28;20485;-74
2022/05/10 07:24:06;;;;;;;11.35;7.13;;;22.30;71.30;;;;;;5047235;28;20036;-75
2022/05/10 07:26:32;;;;;;;8.48;5.82;;;22.50;70.70;;;;;;5035691;28;20041;-74
2022/05/10 07:28:58;;;;;;;10.07;7.00;;;22.60;70.00;;;;;;5072623;28;20041;-74
2022/05/10 07:31:25;;;;;;;9.85;7.13;;;23.20;69.30;;;;;;5065766;28;20039;-74
2022/05/10 07:33:51;;;;;;;7.25;6.53;;;23.40;66.20;;;;;;5071447;28;20032;-74
2022/05/10 07:36:28;;;;;;;9.82;7.80;;;22.40;68.40;;;;;;5069270;28;20385;-74
2022/05/10 07:38:55;;;;;;;29.05;10.18;;;22.00;70.70;;;;;;5037926;28;20049;-74
2022/05/10 07:41:22;;;;;;;12.75;9.73;;;21.20;72.80;;;;;;5049931;28;20488;-74
2022/05/10 07:43:50;;;;;;;9.63;7.70;;;21.50;73.40;;;;;;5023854;28;20270;-74
2022/05/10 07:46:17;;;;;;;8.20;7.32;;;22.00;72.30;;;;;;5051533;28;20375;-76
2022/05/10 07:48:44;;;;;;;8.10;7.28;;;22.60;69.40;;;;;;5050777;28;20041;-76
2022/05/10 07:51:11;;;;;;;13.50;7.25;;;23.10;68.30;;;;;;5050646;28;20029;-76
2022/05/10 07:53:37;;;;;;;9.35;6.25;;;23.30;67.50;;;;;;5050887;28;20037;-74
2022/05/10 07:56:05;;;;;;;9.40;6.25;;;23.30;66.40;;;;;;5051283;28;20037;-74
2022/05/10 07:58:32;;;;;;;6.95;5.68;;;23.50;67.00;;;;;;5024347;28;20041;-74
2022/05/10 08:00:59;;;;;;;6.03;4.90;;;23.70;66.50;;;;;;5050687;28;20374;-74
2022/05/10 08:03:26;;;;;;;6.57;5.82;;;24.20;63.70;;;;;;5044602;28;20032;-74
2022/05/10 08:05:59;;;;;;;6.43;4.28;;;25.10;62.90;;;;;;5051029;28;20033;-74
2022/05/10 08:08:27;;;;;;;5.13;4.53;;;25.10;62.40;;;;;;5044911;28;20053;-74
2022/05/10 08:10:54;;;;;;;6.28;4.47;;;25.40;61.30;;;;;;5043319;28;20385;-74
2022/05/10 08:13:25;;;;;;;6.25;4.72;;;25.30;61.40;;;;;;5044868;28;20044;-74
2022/05/10 08:15:54;;;;;;;5.45;4.30;;;25.40;60.10;;;;;;5049555;28;20060;-74
2022/05/10 08:18:21;;;;;;;5.22;4.70;;;25.80;60.70;;;;;;5044789;28;20470;-75
2022/05/10 08:20:49;;;;;;;6.03;5.38;;;25.80;59.70;;;;;;5050002;28;20029;-74
2022/05/10 08:23:22;;;;;;;6.57;4.07;;;25.40;59.90;;;;;;5050911;28;20029;-74
2022/05/10 08:25:52;;;;;;;5.55;4.93;;;25.20;61.00;;;;;;5044388;28;20056;-74
2022/05/10 08:28:18;;;;;;;5.85;4.47;;;25.70;58.40;;;;;;5045129;28;20041;-74
2022/05/10 08:30:46;;;;;;;6.00;4.60;;;25.20;59.40;;;;;;5023572;28;20033;-73
2022/05/10 08:33:18;;;;;;;5.03;3.42;;;25.80;59.20;;;;;;5047439;28;20034;-74
2022/05/10 08:35:47;;;;;;;4.85;4.18;;;26.20;57.80;;;;;;5044090;28;20041;-75
2022/05/10 08:38:13;;;;;;;4.97;3.90;;;25.70;59.20;;;;;;5056515;28;20048;-75
2022/05/10 08:40:48;;;;;;;5.35;4.32;;;26.20;57.80;;;;;;5047913;28;20043;-74
2022/05/10 08:43:46;;;;;;;6.70;4.32;;;25.10;58.10;;;;;;5054053;28;20029;-74
2022/05/10 08:46:17;;;;;;;6.47;4.28;;;25.60;59.80;;;;;;5042716;28;20041;-74
2022/05/10 08:48:47;;;;;;;6.85;4.57;;;26.10;57.70;;;;;;5055167;28;20462;-74
2022/05/10 08:51:13;;;;;;;;;;;26.20;58.30;;;;;;5031195;28;20394;-74
2022/05/10 08:53:39;;;;;;;5.35;4.28;;;26.80;57.40;;;;;;5032855;28;19909;-74
2022/05/10 08:56:18;;;;;;;7.57;4.20;;;26.30;57.40;;;;;;5036945;28;20048;-74
2022/05/10 08:59:14;;;;;;;4.80;4.28;;;26.10;56.70;;;;;;5055317;28;20033;-75
2022/05/10 09:02:00;;;;;;;6.30;4.20;;;25.10;58.60;;;;;;5053869;28;20040;-75
2022/05/10 09:04:36;;;;;;;4.35;3.95;;;25.70;58.10;;;;;;5051280;28;20031;-75
2022/05/10 09:07:08;;;;;;;3.92;3.53;;;26.20;57.00;;;;;;5055528;28;20035;-75
2022/05/10 09:10:02;;;;;;;4.47;3.15;;;26.80;57.80;;;;;;5055177;28;20044;-74
2022/05/10 09:12:33;;;;;;;4.28;3.80;;;27.60;56.00;;;;;;5050339;28;20056;-74
2022/05/10 09:15:03;;;;;;;4.10;3.70;;;27.40;54.50;;;;;;5033947;28;20045;-74
2022/05/10 09:17:36;;;;;;;;;;;27.10;55.50;;;;;;5045494;28;20036;-74
2022/05/10 09:20:06;;;;;;;5.95;3.70;;;26.40;56.60;;;;;;5049924;28;19908;-74
2022/05/10 09:22:53;;;;;;;6.40;3.42;;;26.20;56.40;;;;;;5053766;28;20045;-75
2022/05/10 09:25:35;;;;;;;4.57;4.10;;;26.70;56.60;;;;;;5054568;28;20044;-75
2022/05/10 09:28:13;;;;;;;5.30;3.75;;;27.00;54.50;;;;;;5048750;28;20037;-74
2022/05/10 09:30:40;;;;;;;8.48;4.25;;;26.80;56.50;;;;;;5035251;28;20048;-74
2022/05/10 09:36:06;;;;;;;5.35;3.40;;;26.50;55.90;;;;;;5046202;28;20044;-73
2022/05/10 09:38:42;;;;;;;4.90;3.83;;;26.70;55.30;;;;;;5067699;28;20064;-75
2022/05/10 09:41:37;;;;;;;5.78;4.20;;;26.40;55.80;;;;;;5072202;28;20028;-74
2022/05/10 09:44:28;;;;;;;5.32;4.13;;;26.30;56.30;;;;;;5051131;28;20028;-74
2022/05/10 09:47:18;;;;;;;3.67;3.38;;;26.30;56.00;;;;;;5073210;28;20036;-74
2022/05/10 09:49:44;;;;;;;5.50;3.85;;;25.20;57.50;;;;;;5067596;28;20036;-75
2022/05/10 09:52:20;;;;;;;4.20;3.83;;;24.80;58.50;;;;;;5068256;28;20025;-74
2022/05/10 09:54:50;;;;;;;5.80;4.55;;;24.60;59.50;;;;;;5068222;28;20036;-74
2022/05/10 09:57:27;;;;;;;;;;;24.50;59.70;;;;;;5068713;28;20039;-74
2022/05/10 09:59:53;;;;;;;4.88;4.15;;;24.80;60.10;;;;;;5072801;28;19908;-74
2022/05/10 10:02:35;;;;;;;5.47;4.45;;;25.30;58.50;;;;;;5068208;28;20059;-74
2022/05/10 10:05:29;;;;;;;6.03;3.95;;;26.10;57.80;;;;;;5046343;28;20048;-77
2022/05/10 10:07:57;;;;;;;5.53;4.30;;;25.70;58.40;;;;;;5069159;28;20039;-74
2022/05/10 10:10:31;;;;;;;5.13;4.45;;;25.80;58.30;;;;;;5071895;28;20516;-74
2022/05/10 10:12:58;;;;;;;5.45;4.43;;;25.90;57.60;;;;;;5072967;28;20039;-73
2022/05/10 10:15:43;;;;;;;5.78;4.10;;;26.00;57.70;;;;;;5073311;28;20035;-74
2022/05/10 10:18:13;;;;;;;6.22;4.13;;;26.40;57.70;;;;;;5072394;28;20040;-73
2022/05/10 10:20:53;;;;;;;6.00;3.97;;;26.10;56.80;;;;;;5070564;28;20047;-74
2022/05/10 10:23:45;;;;;;;4.68;3.88;;;25.90;57.70;;;;;;5073027;28;20036;-75
2022/05/10 10:26:21;;;;;;;5.00;4.50;;;25.90;57.00;;;;;;5070598;28;20409;-75
2022/05/10 10:28:58;;;;;;;5.72;4.55;;;25.80;56.90;;;;;;5055137;28;20052;-75
2022/05/10 10:31:36;;;;;;;3.92;3.55;;;25.60;57.00;;;;;;5070969;28;20044;-74
2022/05/10 10:34:22;;;;;;;4.43;3.75;;;25.50;57.50;;;;;;5067953;28;20048;-74
2022/05/10 10:37:04;;;;;;;5.18;3.97;;;26.00;57.20;;;;;;5073156;28;20032;-73
2022/05/10 10:39:57;;;;;;;5.10;3.83;;;26.20;58.10;;;;;;5071224;28;20057;-75
2022/05/10 10:42:54;;;;;;;5.50;4.10;;;26.50;57.20;;;;;;5069715;28;20047;-74
2022/05/10 10:45:32;;;;;;;4.45;3.55;;;26.20;55.60;;;;;;5060884;28;20056;-75
2022/05/10 10:48:26;;;;;;;4.82;4.32;;;25.60;56.90;;;;;;5072127;28;20041;-74
2022/05/10 10:50:53;;;;;;;5.00;3.58;;;25.50;58.00;;;;;;5071601;28;20032;-72
2022/05/10 10:53:22;;;;;;;5.95;4.10;;;26.00;56.40;;;;;;5072487;28;20401;-76
2022/05/10 10:56:23;;;;;;;3.63;3.33;;;26.40;55.20;;;;;;5073979;28;20040;-74
2022/05/10 10:59:21;;;;;;;4.32;3.92;;;26.50;55.00;;;;;;5065687;28;20029;-73
2022/05/10 11:01:53;;;;;;;4.93;3.40;;;26.30;54.80;;;;;;5070955;28;20131;-76
2022/05/10 11:04:58;;;;;;;4.75;3.72;;;26.60;54.40;;;;;;5072057;28;20039;-75
2022/05/10 11:07:48;;;;;;;4.22;3.70;;;27.00;55.30;;;;;;5067590;28;20433;-74
2022/05/10 11:10:26;;;;;;;4.05;3.67;;;26.20;54.10;;;;;;5065757;28;20051;-74
2022/05/10 11:13:26;;;;;;;3.72;3.35;;;26.50;54.00;;;;;;5071816;28;20028;-74
2022/05/10 11:16:23;;;;;;;7.28;3.85;;;26.40;54.70;;;;;;5069447;28;20389;-74
2022/05/10 11:19:17;;;;;;;4.60;3.78;;;26.80;53.40;;;;;;5068824;28;20056;-74
2022/05/10 11:22:14;;;;;;;4.40;3.13;;;26.60;54.00;;;;;;5068418;28;20032;-74
2022/05/10 11:25:07;;;;;;;3.58;3.28;;;26.60;52.80;;;;;;5070237;28;20401;-75
2022/05/10 11:27:49;;;;;;;4.38;3.90;;;26.90;52.30;;;;;;5072012;28;20024;-77
2022/05/10 11:30:23;;;;;;;5.82;3.25;;;27.00;52.20;;;;;;5066552;28;20390;-74
2022/05/10 11:33:20;;;;;;;3.50;3.20;;;27.10;52.40;;;;;;5071481;28;20044;-74
2022/05/10 11:36:15;;;;;;;3.70;3.40;;;27.20;51.80;;;;;;5071735;28;20380;-74
2022/05/10 11:39:02;;;;;;;7.93;3.30;;;26.60;52.80;;;;;;5071116;28;20052;-76
2022/05/10 11:41:41;;;;;;;4.32;3.40;;;26.70;53.20;;;;;;5070943;28;20024;-74
2022/05/10 11:44:45;;;;;;;6.40;4.05;;;26.90;53.80;;;;;;5064876;28;20051;-75
2022/05/10 11:47:30;;;;;;;4.78;3.25;;;26.80;52.90;;;;;;5067441;28;20032;-74
2022/05/10 11:50:06;;;;;;;6.63;3.40;;;27.00;51.70;;;;;;5066525;28;20336;-74
2022/05/10 11:53:03;;;;;;;5.43;3.00;;;27.00;52.40;;;;;;5071590;28;20385;-74
2022/05/10 11:55:36;;;;;;;3.80;3.38;;;27.00;50.80;;;;;;5066582;28;20043;-74
2022/05/10 11:58:07;;;;;;;3.72;3.25;;;26.60;51.80;;;;;;5071787;28;20040;-74
2022/05/10 12:00:34;;;;;;;4.95;3.60;;;26.10;52.20;;;;;;5070612;28;20028;-74
2022/05/10 12:03:05;;;;;;;12.95;3.97;;;26.40;53.40;;;;;;5071213;28;20039;-75
2022/05/10 12:05:37;;;;;;;7.53;3.97;;;26.40;53.30;;;;;;5050004;28;20032;-75
2022/05/10 12:08:25;;;;;;;5.35;3.58;;;26.70;52.70;;;;;;5071688;28;20040;-73
2022/05/10 12:10:51;;;;;;;4.20;3.80;;;27.10;53.70;;;;;;5069895;28;20055;-76
2022/05/10 12:22:11;;;;;;;5.13;3.70;;;26.80;52.80;;;;;;5066350;28;20028;-73
2022/05/10 12:24:44;;;;;;;5.28;3.80;;;26.90;52.60;;;;;;5070545;28;20497;-73
2022/05/10 12:27:11;;;;;;;4.28;3.88;;;26.50;52.80;;;;;;5066793;28;20032;-73
2022/05/10 12:29:40;;;;;;;3.53;3.00;;;26.80;54.00;;;;;;5067143;28;20420;-77
2022/05/10 12:32:21;;;;;;;3.80;3.33;;;27.10;53.00;;;;;;5069817;28;20041;-73
2022/05/10 12:34:56;;;;;;;5.90;3.28;;;27.20;52.50;;;;;;5070561;28;20044;-72
2022/05/10 12:37:26;;;;;;;5.65;4.15;;;27.70;51.90;;;;;;5071476;28;20056;-73
2022/05/10 12:40:09;;;;;;;5.57;3.70;;;27.40;52.70;;;;;;5070707;28;20262;-75
2022/05/10 12:42:59;;;;;;;3.65;3.25;;;27.60;52.70;;;;;;5070370;28;20029;-76
2022/05/10 12:45:55;;;;;;;3.83;2.83;;;27.60;52.70;;;;;;5071271;28;20385;-73
2022/05/10 12:48:45;;;;;;;6.05;3.28;;;27.50;52.90;;;;;;5071345;28;20035;-73
2022/05/10 12:51:38;;;;;;;3.85;3.45;;;26.90;54.10;;;;;;5069561;28;20047;-72
2022/05/10 12:54:14;;;;;;;6.97;3.08;;;27.00;54.30;;;;;;5070771;28;20037;-73
2022/05/10 12:56:46;;;;;;;4.97;3.33;;;27.20;53.90;;;;;;5053074;28;20489;-74
2022/05/10 12:59:48;;;;;;;6.78;3.53;;;27.10;53.10;;;;;;5070770;28;20040;-73
2022/05/10 13:02:14;;;;;;;4.18;3.40;;;26.70;53.20;;;;;;5059011;28;20056;-73
2022/05/10 13:04:49;;;;;;;3.80;3.45;;;26.50;53.00;;;;;;5068002;28;20879;-73
2022/05/10 13:07:18;;;;;;;3.50;3.05;;;26.40;52.30;;;;;;5053463;28;20040;-73
2022/05/10 13:09:55;;;;;;;5.00;3.28;;;26.30;52.90;;;;;;5067213;28;20052;-73
2022/05/10 13:12:28;;;;;;;2.58;2.22;;;26.30;52.70;;;;;;5069507;28;20033;-74
2022/05/10 13:15:02;;;;;;;3.05;2.72;;;26.50;51.50;;;;;;5066028;28;20224;-73
2022/05/10 13:17:34;;;;;;;3.47;2.83;;;26.70;51.60;;;;;;5064547;28;20037;-73
2022/05/10 13:20:08;;;;;;;3.90;3.25;;;26.90;51.60;;;;;;5065423;28;20048;-74
2022/05/10 13:22:35;;;;;;;3.70;3.10;;;27.30;52.40;;;;;;5070304;28;20028;-77
2022/05/10 13:25:04;;;;;;;5.28;2.97;;;27.60;51.00;;;;;;5069173;28;20473;-75
2022/05/10 13:27:34;;;;;;;3.72;2.95;;;27.90;50.70;;;;;;5065829;28;20458;-76
2022/05/10 13:30:16;;;;;;;4.18;3.13;;;27.60;50.60;;;;;;5073073;28;20048;-75
2022/05/10 13:32:49;;;;;;;3.28;2.85;;;27.60;49.90;;;;;;5074523;28;20033;-73
2022/05/10 13:35:27;;;;;;;3.08;2.78;;;27.20;50.10;;;;;;5073779;28;20025;-73
2022/05/10 13:38:03;;;;;;;3.53;2.85;;;27.00;50.10;;;;;;5073194;28;20044;-73